createdAt,value
2023-04-15T00:01:43.295Z,9.48
2023-04-15T00:06:53.058Z,9.33
2023-04-15T00:11:54.862Z,9.21
2023-04-15T00:16:57.403Z,9.11
2023-04-15T00:22:00.757Z,9.00
2023-04-15T00:27:02.459Z,8.87
2023-04-15T00:32:04.452Z,8.76
2023-04-15T00:37:06.170Z,8.67
2023-04-15T00:42:07.850Z,8.63
2023-04-15T00:47:11.298Z,8.54
2023-04-15T00:52:13.257Z,8.40
2023-04-15T00:57:14.874Z,8.32
2023-04-15T01:02:16.903Z,8.30
2023-04-15T01:07:19.044Z,8.32
2023-04-15T01:12:21.142Z,8.39
2023-04-15T01:17:24.825Z,8.45
2023-04-15T01:22:27.800Z,8.51
2023-04-15T01:27:30.251Z,8.55
2023-04-15T01:32:32.127Z,8.56
2023-04-15T01:37:34.197Z,8.54
2023-04-15T01:42:38.918Z,8.51
2023-04-15T01:47:40.610Z,8.50
2023-04-15T01:52:44.972Z,8.51
2023-04-15T01:57:47.395Z,8.48
2023-04-15T02:02:49.538Z,8.44
2023-04-15T02:07:52.206Z,8.36
2023-04-15T02:12:54.269Z,8.28
2023-04-15T02:17:57.014Z,8.20
2023-04-15T02:22:58.878Z,8.10
2023-04-15T02:28:00.792Z,8.00
2023-04-15T02:33:03.262Z,7.91
2023-04-15T02:38:05.094Z,7.81
2023-04-15T02:43:07.430Z,7.71
2023-04-15T02:48:09.857Z,7.60
2023-04-15T02:53:11.746Z,7.48
2023-04-15T02:58:13.649Z,7.32
2023-04-15T03:03:15.707Z,7.18
2023-04-15T03:08:17.561Z,7.05
2023-04-15T03:13:20.461Z,6.94
2023-04-15T03:18:23.598Z,6.85
2023-04-15T03:23:25.951Z,6.69
2023-04-15T03:28:29.634Z,6.55
2023-04-15T03:33:32.549Z,6.43
2023-04-15T03:38:34.374Z,6.32
2023-04-15T03:43:36.034Z,6.25
2023-04-15T03:48:37.674Z,6.15
2023-04-15T03:53:39.380Z,5.99
2023-04-15T03:58:41.062Z,5.79
2023-04-15T04:07:18.211Z,5.49
2023-04-15T04:12:20.045Z,5.26
2023-04-15T04:17:21.868Z,5.08
2023-04-15T04:22:24.640Z,4.89
2023-04-15T04:27:26.648Z,4.72
2023-04-15T04:32:28.319Z,4.71
2023-04-15T04:37:30.024Z,4.79
2023-04-15T04:42:31.774Z,4.90
2023-04-15T04:47:33.402Z,4.98
2023-04-15T04:52:35.242Z,5.10
2023-04-15T04:57:37.830Z,5.26
2023-04-15T05:02:39.918Z,5.42
2023-04-15T05:07:42.158Z,5.55
2023-04-15T05:12:44.403Z,5.82
2023-04-15T05:17:46.133Z,6.18
2023-04-15T05:22:47.966Z,6.57
2023-04-15T05:27:49.746Z,6.96
2023-04-15T05:32:51.913Z,7.34
2023-04-15T05:37:53.692Z,7.64
2023-04-15T05:42:55.522Z,7.98
2023-04-15T05:47:57.228Z,8.24
2023-04-15T05:52:59.130Z,8.49
2023-04-15T05:58:00.781Z,8.78
2023-04-15T06:03:02.582Z,9.09
2023-04-15T06:08:04.690Z,9.35
2023-04-15T06:13:06.984Z,9.62
2023-04-15T06:18:08.701Z,9.89
2023-04-15T06:23:10.434Z,10.04
2023-04-15T06:28:12.144Z,10.29
2023-04-15T06:33:14.052Z,10.59
2023-04-15T06:38:15.866Z,11.15
2023-04-15T06:43:17.476Z,11.90
2023-04-15T06:48:19.221Z,12.36
2023-04-15T06:53:21.532Z,12.54
2023-04-15T06:58:23.210Z,12.48
2023-04-15T07:03:24.953Z,12.33
2023-04-15T07:08:26.605Z,12.80
2023-04-15T07:13:30.986Z,13.58
2023-04-15T07:18:32.643Z,14.16
2023-04-15T07:23:34.545Z,14.38
2023-04-15T07:28:36.224Z,14.38
2023-04-15T07:33:37.899Z,14.76
2023-04-15T07:38:39.852Z,15.15
2023-04-15T07:43:41.552Z,15.43
2023-04-15T07:48:43.403Z,15.72
2023-04-15T07:53:45.345Z,15.85
2023-04-15T07:58:47.017Z,15.99
2023-04-15T08:03:52.969Z,16.07
2023-04-15T08:08:55.725Z,16.03
2023-04-15T08:13:57.673Z,16.30
2023-04-15T08:18:59.813Z,16.35
2023-04-15T08:24:01.918Z,16.42
2023-04-15T08:29:03.744Z,16.61
2023-04-15T08:34:05.771Z,17.04
2023-04-15T08:39:07.869Z,17.10
2023-04-15T08:44:10.297Z,17.19
2023-04-15T08:49:13.313Z,17.22
2023-04-15T08:54:15.052Z,17.51
2023-04-15T08:59:17.083Z,17.29
2023-04-15T09:04:19.082Z,17.56
2023-04-15T09:09:20.874Z,18.02
2023-04-15T09:14:23.257Z,18.21
2023-04-15T09:19:25.396Z,18.66
2023-04-15T09:24:37.405Z,19.39
2023-04-15T09:29:41.699Z,19.79
2023-04-15T09:34:43.548Z,19.52
2023-04-15T09:39:52.967Z,18.96
2023-04-15T09:44:55.098Z,19.01
2023-04-15T09:50:01.104Z,18.94
2023-04-15T09:55:02.965Z,19.27
2023-04-15T10:00:11.035Z,19.97
2023-04-15T10:05:15.832Z,20.15
2023-04-15T10:10:18.293Z,19.36
2023-04-15T10:15:21.599Z,19.20
2023-04-15T10:20:24.447Z,19.28
2023-04-15T10:25:26.952Z,19.22
2023-04-15T10:30:29.085Z,18.90
2023-04-15T10:35:32.909Z,19.24
2023-04-15T10:40:35.410Z,19.89
2023-04-15T10:45:37.851Z,19.99
2023-04-15T10:50:39.876Z,19.51
2023-04-15T10:55:41.597Z,19.38
2023-04-15T11:00:52.228Z,19.18
2023-04-15T11:05:54.349Z,18.99
2023-04-15T11:10:56.321Z,18.80
2023-04-15T11:15:59.192Z,18.32
2023-04-15T11:21:03.694Z,17.86
2023-04-15T11:26:11.650Z,17.53
2023-04-15T11:31:16.424Z,17.27
2023-04-15T11:36:18.400Z,17.03
2023-04-15T11:41:22.320Z,16.78
2023-04-15T11:46:30.971Z,16.48
2023-04-15T11:51:34.545Z,16.35
2023-04-15T11:56:36.458Z,16.21
2023-04-15T12:01:47.211Z,16.15
2023-04-15T12:06:48.935Z,16.26
2023-04-15T12:11:53.735Z,16.45
2023-04-15T12:16:59.908Z,16.97
2023-04-15T12:22:22.208Z,17.46
2023-04-15T12:27:29.265Z,18.04
2023-04-15T12:32:35.948Z,18.57
2023-04-15T12:37:37.709Z,19.01
2023-04-15T12:42:40.079Z,19.44
2023-04-15T12:47:41.852Z,20.08
2023-04-15T12:52:43.594Z,20.97
2023-04-15T12:57:46.993Z,21.76
2023-04-15T13:02:49.286Z,21.69
2023-04-15T13:07:51.241Z,21.87
2023-04-15T13:12:53.782Z,22.45
2023-04-15T13:17:55.955Z,22.71
2023-04-15T13:23:01.011Z,23.21
2023-04-15T13:28:03.162Z,22.91
2023-04-15T13:33:05.664Z,22.52
2023-04-15T13:38:07.395Z,21.23
2023-04-15T13:43:18.864Z,19.99
2023-04-15T13:48:20.761Z,19.00
2023-04-15T13:53:33.870Z,18.30
2023-04-15T13:58:41.382Z,17.73
2023-04-15T14:03:43.224Z,17.43
2023-04-15T14:08:45.460Z,16.97
2023-04-15T14:13:47.487Z,16.46
2023-04-15T14:18:49.209Z,15.84
2023-04-15T14:23:51.083Z,15.22
2023-04-15T14:28:52.758Z,14.73
2023-04-15T14:33:54.477Z,14.36
2023-04-15T14:38:56.213Z,14.17
2023-04-15T14:43:58.150Z,14.13
2023-04-15T14:48:59.821Z,14.16
2023-04-15T14:54:01.961Z,14.16
2023-04-15T14:59:03.797Z,14.15
2023-04-15T15:04:06.491Z,14.15
2023-04-15T15:09:08.582Z,14.13
2023-04-15T15:14:10.384Z,14.04
2023-04-15T15:19:12.140Z,13.88
2023-04-15T15:24:13.862Z,13.67
2023-04-15T15:29:15.657Z,13.53
2023-04-15T15:34:17.603Z,13.46
2023-04-15T15:39:19.299Z,13.49
2023-04-15T15:44:21.045Z,13.56
2023-04-15T15:49:22.836Z,13.51
2023-04-15T15:54:25.375Z,13.39
2023-04-15T15:59:27.136Z,13.32
2023-04-15T16:04:29.078Z,12.92
2023-04-15T16:09:31.767Z,12.46
2023-04-15T16:14:33.430Z,12.12
2023-04-15T16:19:35.165Z,11.85
2023-04-15T16:24:36.889Z,11.44
2023-04-15T16:29:38.611Z,11.02
2023-04-15T16:34:41.556Z,10.75
2023-04-15T16:39:43.330Z,10.54
2023-04-15T16:44:44.956Z,10.29
2023-04-15T16:49:47.665Z,10.01
2023-04-15T16:54:49.323Z,9.79
2023-04-15T16:59:51.780Z,9.70
2023-04-15T17:04:53.515Z,9.65
2023-04-15T17:09:55.331Z,9.48
2023-04-15T17:14:57.153Z,9.23
2023-04-15T17:19:58.963Z,9.11
2023-04-15T17:25:00.755Z,9.09
2023-04-15T17:30:02.624Z,9.06
2023-04-15T17:35:06.502Z,9.03
2023-04-15T17:40:09.087Z,8.98
2023-04-15T17:45:11.475Z,8.83
2023-04-15T17:50:13.194Z,8.78
2023-04-15T17:55:15.220Z,8.79
2023-04-15T18:00:17.237Z,8.86
2023-04-15T18:05:19.935Z,8.89
2023-04-15T18:10:21.964Z,8.93
2023-04-15T18:15:23.661Z,8.99
2023-04-15T18:20:25.699Z,9.04
2023-04-15T18:25:27.570Z,9.03
2023-04-15T18:30:29.362Z,9.01
2023-04-15T18:35:31.349Z,9.01
2023-04-15T18:40:33.001Z,8.93
2023-04-15T18:45:34.977Z,8.77
2023-04-15T18:50:37.160Z,8.71
2023-04-15T18:55:39.991Z,8.67
2023-04-15T19:00:43.813Z,8.63
2023-04-15T19:05:45.765Z,8.52
2023-04-15T19:10:47.699Z,8.43
2023-04-15T19:15:49.384Z,8.45
2023-04-15T19:20:52.968Z,8.53
2023-04-15T19:25:54.689Z,8.60
2023-04-15T19:30:58.018Z,8.66
2023-04-15T19:36:05.564Z,8.74
2023-04-15T19:41:09.144Z,8.81
2023-04-15T19:46:13.343Z,8.83
2023-04-15T19:51:17.897Z,8.71
2023-04-15T19:56:20.701Z,8.71
2023-04-15T20:01:23.163Z,8.74
2023-04-15T20:06:25.086Z,8.67
2023-04-15T20:12:06.100Z,8.61
2023-04-15T20:16:51.119Z,8.45
2023-04-15T20:21:54.083Z,8.28
2023-04-15T20:26:57.543Z,8.11
2023-04-15T20:31:59.266Z,7.99
2023-04-15T20:37:01.534Z,7.92
2023-04-15T20:42:03.469Z,7.88
2023-04-15T20:47:06.371Z,7.79
2023-04-15T20:52:08.979Z,7.73
2023-04-15T20:57:10.652Z,7.63
2023-04-15T21:02:12.493Z,7.55
2023-04-15T21:07:14.836Z,7.52
2023-04-15T21:12:16.730Z,7.54
2023-04-15T21:17:19.615Z,7.58
2023-04-15T21:22:21.517Z,7.62
2023-04-15T21:27:23.233Z,7.72
2023-04-15T21:32:26.303Z,7.82
2023-04-15T21:37:27.922Z,7.95
2023-04-15T21:42:30.217Z,8.07
2023-04-15T21:48:00.892Z,8.17
2023-04-15T21:53:08.130Z,8.23
2023-04-15T21:58:09.870Z,8.18
2023-04-15T22:03:12.127Z,8.05
2023-04-15T22:08:14.163Z,7.88
2023-04-15T22:13:16.858Z,7.68
2023-04-15T22:18:18.525Z,7.55
2023-04-15T22:23:20.841Z,7.40
2023-04-15T22:28:22.536Z,7.25
2023-04-15T22:33:24.333Z,7.13
2023-04-15T22:38:26.043Z,7.03
2023-04-15T22:43:27.917Z,6.92
2023-04-15T22:48:29.651Z,6.79
2023-04-15T22:53:31.489Z,6.70
2023-04-15T22:58:33.219Z,6.65
2023-04-15T23:03:35.072Z,6.66
2023-04-15T23:08:59.188Z,6.43
2023-04-15T23:14:29.103Z,6.05
2023-04-15T23:19:30.837Z,5.76
2023-04-15T23:24:32.686Z,5.57
2023-04-15T23:29:34.400Z,5.46
2023-04-15T23:34:37.617Z,5.40
2023-04-15T23:39:42.189Z,5.29
2023-04-15T23:44:44.945Z,5.24
2023-04-15T23:49:52.772Z,5.21
2023-04-15T23:54:54.526Z,5.08
2023-04-15T23:59:56.572Z,4.95
